Encinitas, CA

1:57 AM PDT on September 17, 2014 (GMT -0700)
Miramar Marine Corps Air Station-Mitscher | Change Station
CLOSE
Current Station
Airport
Location: Miramar MCAS,
Elevation: 476 ft
Nearby Weather Stations
Active Advisory: Beach Hazard Statement Active Notice: Record Report

Elev 476 ft 32.86 °N, 117.14 °W | Updated 2 minutes ago

Partly Cloudy
Partly Cloudy
78 °F
Feels Like 78 °F
N
4
Wind Variable Wind from ENE

Today
High -- | Low -- °F
--% Chance of Precip.
Yesterday
High -- | Low -- °F
Precip. -- in
6:34 AM 6:52 PM
Last Quarter, 38% visible
Pressure 29.70 in
Visibility 10.0 miles
Clouds Few 10000 ft
Dew Point 66 °F
Humidity 66%
Rainfall 0.00 in
Snow Depth Not available.
UV 0 out of 12
Pollen 5.60 out of 12
Ozone Good
PM2.5 Moderate
Flu Activity Not available.
METAR KNKX 170855Z 06003KT 10SM FEW100 26/19 A2973 RMK AO2 SLP057 T02560189 58008

More Conditions Fewer Conditions

Pressure 29.70 in
Visibility 10.0 miles
Clouds Few 10000 ft
Dew Point 66 °F
Humidity 66%
Rainfall 0.00 in
Snow Depth Not available.
UV 0 out of 12
Pollen 5.60 out of 12
Ozone Good
PM2.5 Moderate
Flu Activity Not available.
METAR KNKX 170855Z 06003KT 10SM FEW100 26/19 A2973 RMK AO2 SLP057 T02560189 58008

More Conditions Fewer Conditions

10-Day Weather Forecast

Almanac

Astronomy

Sep. 17, 2014 Rise Set
Actual Time 6:34 AM PDT 6:52 PM PDT
Civil Twilight 6:09 AM PDT 7:17 PM PDT
Nautical Twilight 5:40 AM PDT 7:46 PM PDT
Astronomical Twilight 5:11 AM PDT 8:15 PM PDT
Moon 12:51 AM PDT 2:53 PM PDT
Length of Visible Light 13h 07m
Length of Day
12h 18m
Tomorrow will be 2m 1s shorter.
Last Quarter, 38% of the Moon is Illuminated
Today
Last Quarter
Sep 24
New
Oct 1
First Quarter
Oct 8
Full
Oct 15
Last Quarter

Today's Extremes

State Highs State Lows

Community

WunderPhotos

Upload Photos

1,753,990 photos uploaded!

Nearby

Air Quality

  Air Quality AQ Index Pollutant
Yesterday Moderate
PM2.5
Yesterday Good
OZONE
Current Moderate
PM2.5
Current Good
OZONE
Tuesday Moderate
PM2.5
Tuesday Good
OZONE
Wednesday Moderate
PM2.5
Wednesday Moderate
OZONE

Snow Depth

Station Depth Elevation
Summit Meadow 0 in 9122 ft
Fallen Leaf 0 in 6300 ft
Tahoe City Cross 0 in 6750 ft
Blue Lakes 0 in 8000 ft
Leavitt Lake 1 in 9400 ft

Earthquake Activity

City Distance Mag. Time & Date
La Quinta, California 58 miles 2.7 8:59 PM PDT
2014-09-15
San Jacinto, California 55 miles 3.0 3:16 PM PDT
2014-09-14
Minimum magnitude displayed is 2.5.

Coastal Water Temperatures

Place Temperature
La Jolla, CA 70.0 °F
San Diego, CA 77.0 °F

Nearby Weather Stations